Time;durP1;ratioP1;P1;durP2;ratioP2;P2;SDS_P1;SDS_P2;PMS_P1;PMS_P2;Temp;Humidity;BMP_temperature;BMP_pressure;BME280_temperature;BME280_humidity;BME280_pressure;Samples;Min_cycle;Max_cycle;Signal;HPM_P1;HPM_P2
2023/02/14 00:00:48;;;;;;;20.55;10.52;;;;;;;;;;5054492;28;20563;-84
2023/02/14 00:03:15;;;;;;;19.33;11.05;;;;;;;;;;5054730;28;20083;-84
2023/02/14 00:05:42;;;;;;;21.33;11.20;;;;;;;;;;5054670;28;20080;-84
2023/02/14 00:08:10;;;;;;;17.80;11.20;;;;;;;;;;5036502;28;20049;-84
2023/02/14 00:10:37;;;;;;;22.17;11.70;;;;;;;;;;5054071;28;20504;-83
2023/02/14 00:13:04;;;;;;;18.95;11.45;;;;;;;;;;5054302;28;20409;-84
2023/02/14 00:15:31;;;;;;;15.82;9.82;;;;;;;;;;5036516;28;20044;-84
2023/02/14 00:17:59;;;;;;;21.95;11.50;;;;;;;;;;5036714;28;20089;-84
2023/02/14 00:20:26;;;;;;;16.75;10.82;;;;;;;;;;5036687;28;20080;-84
2023/02/14 00:22:54;;;;;;;21.65;11.48;;;;;;;;;;5054694;28;20049;-84
2023/02/14 00:25:21;;;;;;;16.30;10.25;;;;;;;;;;5036787;28;20052;-84
2023/02/14 00:27:48;;;;;;;18.77;10.43;;;;;;;;;;5054324;28;20131;-84
2023/02/14 00:30:16;;;;;;;18.08;10.43;;;;;;;;;;5054461;28;20051;-84
2023/02/14 00:32:43;;;;;;;16.83;9.95;;;;;;;;;;5037218;28;20555;-84
2023/02/14 00:35:11;;;;;;;15.48;9.75;;;;;;;;;;5050733;28;20116;-84
2023/02/14 00:37:38;;;;;;;17.17;10.27;;;;;;;;;;5060186;28;20035;-84
2023/02/14 00:40:05;;;;;;;15.75;10.25;;;;;;;;;;5045980;28;20420;-83
2023/02/14 00:42:33;;;;;;;17.00;10.10;;;;;;;;;;5057188;28;20064;-83
2023/02/14 00:45:00;;;;;;;17.02;9.15;;;;;;;;;;5040577;28;20052;-84
2023/02/14 00:47:27;;;;;;;21.27;10.07;;;;;;;;;;5057374;28;20052;-84
2023/02/14 00:49:55;;;;;;;18.98;10.50;;;;;;;;;;5040001;28;20080;-84
2023/02/14 00:52:22;;;;;;;15.32;9.57;;;;;;;;;;5057627;28;20053;-84
2023/02/14 00:54:50;;;;;;;21.83;10.93;;;;;;;;;;5040177;28;20049;-84
2023/02/14 00:57:17;;;;;;;18.33;10.60;;;;;;;;;;5057833;28;20045;-84
2023/02/14 00:59:44;;;;;;;20.55;11.43;;;;;;;;;;5039773;28;20060;-84
2023/02/14 01:02:11;;;;;;;20.20;11.70;;;;;;;;;;5039634;28;20554;-84
2023/02/14 01:04:39;;;;;;;21.20;11.02;;;;;;;;;;5039821;28;20558;-84
2023/02/14 01:07:06;;;;;;;17.40;10.20;;;;;;;;;;5039736;28;20052;-84
2023/02/14 01:09:33;;;;;;;16.30;10.20;;;;;;;;;;5057303;28;20060;-84
2023/02/14 01:12:00;;;;;;;16.23;9.77;;;;;;;;;;5056818;28;20052;-85
2023/02/14 01:14:28;;;;;;;16.05;10.38;;;;;;;;;;5039522;28;20064;-84
2023/02/14 01:16:55;;;;;;;17.50;9.82;;;;;;;;;;5057818;28;20110;-84
2023/02/14 01:19:22;;;;;;;17.45;10.15;;;;;;;;;;5057168;28;20126;-84
2023/02/14 01:21:49;;;;;;;13.65;8.57;;;;;;;;;;5039479;28;20413;-84
2023/02/14 01:24:17;;;;;;;16.80;9.57;;;;;;;;;;5039337;28;20110;-85
2023/02/14 01:26:44;;;;;;;15.70;9.52;;;;;;;;;;5039734;28;20102;-84
2023/02/14 01:29:12;;;;;;;17.02;9.85;;;;;;;;;;5039363;28;20148;-84
2023/02/14 01:31:39;;;;;;;15.85;9.23;;;;;;;;;;5039461;28;20049;-84
2023/02/14 01:34:06;;;;;;;18.13;9.93;;;;;;;;;;5039302;28;20052;-85
2023/02/14 01:36:36;;;;;;;15.05;8.93;;;;;;;;;;5039488;28;20061;-84
2023/02/14 01:39:04;;;;;;;12.52;8.07;;;;;;;;;;5039312;28;20476;-85
2023/02/14 01:41:33;;;;;;;16.02;8.65;;;;;;;;;;5056721;28;20136;-84
2023/02/14 01:44:01;;;;;;;13.35;8.57;;;;;;;;;;5056704;28;20128;-84
2023/02/14 01:46:30;;;;;;;17.55;8.88;;;;;;;;;;5039476;28;20057;-84
2023/02/14 01:49:00;;;;;;;14.68;8.85;;;;;;;;;;5056889;28;20052;-84
2023/02/14 01:51:28;;;;;;;19.08;9.82;;;;;;;;;;5056112;28;20053;-84
2023/02/14 01:53:56;;;;;;;15.00;10.02;;;;;;;;;;5056802;28;20504;-85
2023/02/14 01:56:27;;;;;;;18.00;9.52;;;;;;;;;;5039146;28;20055;-84
2023/02/14 01:58:56;;;;;;;15.50;9.27;;;;;;;;;;5058125;28;20136;-84
2023/02/14 02:01:23;;;;;;;15.10;8.82;;;;;;;;;;5038878;28;20049;-84
2023/02/14 02:03:53;;;;;;;13.27;8.70;;;;;;;;;;5038260;28;20131;-84
2023/02/14 02:06:23;;;;;;;12.73;7.85;;;;;;;;;;5055871;28;20045;-84
2023/02/14 02:08:56;;;;;;;15.05;8.30;;;;;;;;;;5056830;28;20059;-83
2023/02/14 02:11:23;;;;;;;13.35;7.88;;;;;;;;;;5038595;28;20064;-84
2023/02/14 02:13:50;;;;;;;11.07;7.35;;;;;;;;;;5038291;28;20063;-84
2023/02/14 02:16:26;;;;;;;12.75;7.35;;;;;;;;;;5038728;28;20060;-84
2023/02/14 02:19:12;;;;;;;13.68;7.60;;;;;;;;;;5038686;28;20052;-84
2023/02/14 02:21:49;;;;;;;13.75;7.30;;;;;;;;;;5038346;28;20048;-84
2023/02/14 02:24:21;;;;;;;10.68;7.13;;;;;;;;;;5038381;28;20052;-84
2023/02/14 02:26:48;;;;;;;15.20;7.87;;;;;;;;;;5038892;28;20083;-84
2023/02/14 02:29:18;;;;;;;13.73;7.53;;;;;;;;;;5050908;28;20053;-84
2023/02/14 02:32:07;;;;;;;10.77;7.10;;;;;;;;;;5060701;28;20110;-84
2023/02/14 02:34:44;;;;;;;11.70;7.47;;;;;;;;;;5044866;28;20053;-83
2023/02/14 02:37:30;;;;;;;12.32;7.05;;;;;;;;;;5038148;28;20049;-84
2023/02/14 02:40:06;;;;;;;13.25;7.00;;;;;;;;;;5038023;28;20072;-84
2023/02/14 02:42:42;;;;;;;11.82;6.75;;;;;;;;;;5055928;28;20136;-84
2023/02/14 02:45:35;;;;;;;12.90;7.53;;;;;;;;;;5055944;28;20120;-84
2023/02/14 02:48:12;;;;;;;11.23;7.30;;;;;;;;;;5038439;28;20053;-84
2023/02/14 02:53:43;;;;;;;12.27;7.50;;;;;;;;;;5055881;28;20053;-84
2023/02/14 02:59:17;;;;;;;10.50;7.10;;;;;;;;;;5055000;28;20059;-84
2023/02/14 03:01:54;;;;;;;11.05;6.55;;;;;;;;;;5037416;28;20045;-84
2023/02/14 03:09:56;;;;;;;9.98;6.55;;;;;;;;;;5055426;28;20049;-84
2023/02/14 03:12:29;;;;;;;10.13;6.28;;;;;;;;;;5055382;28;20049;-85
2023/02/14 03:14:56;;;;;;;10.65;7.53;;;;;;;;;;5055792;28;20086;-84
2023/02/14 03:17:29;;;;;;;11.50;7.13;;;;;;;;;;5055799;28;20113;-84
2023/02/14 03:20:14;;;;;;;9.55;7.05;;;;;;;;;;5037783;28;20080;-84
2023/02/14 03:22:53;;;;;;;10.98;7.30;;;;;;;;;;5037646;28;20049;-84
2023/02/14 03:25:28;;;;;;;10.13;6.43;;;;;;;;;;5055083;28;20049;-84
2023/02/14 03:27:58;;;;;;;8.70;6.03;;;;;;;;;;5037395;28;20056;-84
2023/02/14 03:30:25;;;;;;;8.07;5.78;;;;;;;;;;5054596;28;20053;-84
2023/02/14 03:32:58;;;;;;;12.63;6.32;;;;;;;;;;5037589;28;20056;-85
2023/02/14 03:35:29;;;;;;;7.90;6.45;;;;;;;;;;5054847;28;20045;-85
2023/02/14 03:38:14;;;;;;;8.93;6.40;;;;;;;;;;5037308;28;20059;-84
2023/02/14 03:40:45;;;;;;;13.45;7.97;;;;;;;;;;5036994;28;20106;-84
2023/02/14 03:43:15;;;;;;;11.23;7.65;;;;;;;;;;5055200;28;20083;-85
2023/02/14 03:45:44;;;;;;;12.40;7.40;;;;;;;;;;5037172;28;20561;-85
2023/02/14 03:48:13;;;;;;;9.55;6.65;;;;;;;;;;5037021;28;20053;-85
2023/02/14 03:50:42;;;;;;;10.23;6.32;;;;;;;;;;5054743;28;20041;-85
2023/02/14 03:53:10;;;;;;;9.75;6.57;;;;;;;;;;5037465;28;20482;-85
2023/02/14 03:55:57;;;;;;;10.10;6.28;;;;;;;;;;5055042;28;20049;-85
2023/02/14 03:58:30;;;;;;;10.23;8.02;;;;;;;;;;5036693;28;20053;-84
2023/02/14 04:00:59;;;;;;;15.15;10.98;;;;;;;;;;5054989;28;20162;-85
2023/02/14 04:03:28;;;;;;;13.63;10.75;;;;;;;;;;5037995;28;20049;-84
2023/02/14 04:05:55;;;;;;;17.05;12.02;;;;;;;;;;5037031;28;20049;-85
2023/02/14 04:08:24;;;;;;;15.30;10.65;;;;;;;;;;5037035;28;20057;-85
2023/02/14 04:10:52;;;;;;;15.15;10.70;;;;;;;;;;5055169;28;20045;-85
2023/02/14 04:13:20;;;;;;;15.52;10.68;;;;;;;;;;5037599;28;20093;-84
2023/02/14 04:15:47;;;;;;;12.50;8.80;;;;;;;;;;5040756;28;20048;-85
2023/02/14 04:21:01;;;;;;;12.00;7.70;;;;;;;;;;5058650;28;20080;-84
2023/02/14 04:23:29;;;;;;;10.65;7.82;;;;;;;;;;5065009;28;20055;-84
2023/02/14 04:25:56;;;;;;;9.55;7.40;;;;;;;;;;5060967;28;20040;-84
2023/02/14 04:28:23;;;;;;;11.82;8.40;;;;;;;;;;5061114;28;20071;-85
2023/02/14 04:30:51;;;;;;;9.45;7.30;;;;;;;;;;5040950;28;20049;-84
2023/02/14 04:33:19;;;;;;;9.48;7.55;;;;;;;;;;5040735;28;20112;-85
2023/02/14 04:35:47;;;;;;;11.38;8.18;;;;;;;;;;5058821;28;20539;-85
2023/02/14 04:38:15;;;;;;;14.15;9.20;;;;;;;;;;5058193;28;20408;-85
2023/02/14 04:40:42;;;;;;;9.07;6.10;;;;;;;;;;5040528;28;20081;-85
2023/02/14 04:43:09;;;;;;;9.00;5.80;;;;;;;;;;5040614;28;20057;-84
2023/02/14 04:45:36;;;;;;;8.15;5.75;;;;;;;;;;5041089;28;20481;-85
2023/02/14 04:48:03;;;;;;;9.57;6.35;;;;;;;;;;5058620;28;20045;-85
2023/02/14 04:50:31;;;;;;;8.82;6.60;;;;;;;;;;5040573;28;20132;-85
2023/02/14 04:52:58;;;;;;;11.23;7.75;;;;;;;;;;5039921;28;20052;-85
2023/02/14 04:55:25;;;;;;;9.02;6.85;;;;;;;;;;5040651;28;20069;-85
2023/02/14 04:57:52;;;;;;;9.35;6.82;;;;;;;;;;5057838;28;20045;-85
2023/02/14 05:00:19;;;;;;;10.25;6.65;;;;;;;;;;5039715;28;20151;-85
2023/02/14 05:02:47;;;;;;;14.30;9.50;;;;;;;;;;5040151;28;20079;-85
2023/02/14 05:05:14;;;;;;;10.43;7.93;;;;;;;;;;5040048;28;20139;-85
2023/02/14 05:07:46;;;;;;;9.70;7.43;;;;;;;;;;5057895;28;20044;-85
2023/02/14 05:10:13;;;;;;;13.17;7.97;;;;;;;;;;5041619;28;20390;-85
2023/02/14 05:12:41;;;;;;;12.82;8.00;;;;;;;;;;5044629;28;20053;-85
2023/02/14 05:15:08;;;;;;;10.30;7.45;;;;;;;;;;5042698;28;20080;-85
2023/02/14 05:17:36;;;;;;;10.70;7.43;;;;;;;;;;5042689;28;20053;-85
2023/02/14 05:20:06;;;;;;;12.68;8.25;;;;;;;;;;5044184;28;20052;-85
2023/02/14 05:22:33;;;;;;;10.80;6.82;;;;;;;;;;5041515;28;20052;-84
2023/02/14 05:25:01;;;;;;;10.30;7.55;;;;;;;;;;5043241;28;20045;-85
2023/02/14 05:27:28;;;;;;;9.18;7.22;;;;;;;;;;5045887;28;20105;-85
2023/02/14 05:29:55;;;;;;;7.50;5.72;;;;;;;;;;5046588;28;20056;-85
2023/02/14 05:32:23;;;;;;;11.05;7.13;;;;;;;;;;5047203;28;20061;-85
2023/02/14 05:34:50;;;;;;;9.25;6.28;;;;;;;;;;5045112;28;20051;-85
2023/02/14 05:37:17;;;;;;;9.40;6.32;;;;;;;;;;5043453;28;20045;-85
2023/02/14 05:39:44;;;;;;;7.03;5.75;;;;;;;;;;5061921;28;20106;-85
2023/02/14 05:42:11;;;;;;;8.02;5.57;;;;;;;;;;5063689;28;20053;-85
2023/02/14 05:44:39;;;;;;;8.10;6.13;;;;;;;;;;5046673;28;20052;-85
2023/02/14 05:47:06;;;;;;;11.57;6.38;;;;;;;;;;5047954;28;20543;-85
2023/02/14 05:49:34;;;;;;;9.52;6.40;;;;;;;;;;5048172;28;20067;-85
2023/02/14 05:52:02;;;;;;;8.30;6.55;;;;;;;;;;5031011;28;20052;-85
2023/02/14 05:54:29;;;;;;;8.77;6.45;;;;;;;;;;5067949;28;20068;-85
2023/02/14 05:56:57;;;;;;;10.18;6.82;;;;;;;;;;5051680;28;20068;-85
2023/02/14 05:59:24;;;;;;;12.00;7.25;;;;;;;;;;5066888;28;20108;-85
2023/02/14 06:01:51;;;;;;;12.85;7.18;;;;;;;;;;5050443;28;20053;-85
2023/02/14 06:04:19;;;;;;;11.20;7.05;;;;;;;;;;5066783;28;20115;-85
2023/02/14 06:06:46;;;;;;;14.95;7.15;;;;;;;;;;5050307;28;20049;-83
2023/02/14 06:09:14;;;;;;;14.95;9.05;;;;;;;;;;5052142;28;20108;-85
2023/02/14 06:11:41;;;;;;;13.23;8.45;;;;;;;;;;5075298;28;20061;-85
2023/02/14 06:14:09;;;;;;;13.63;8.88;;;;;;;;;;5068556;28;20041;-84
2023/02/14 06:16:36;;;;;;;22.90;10.55;;;;;;;;;;5053244;28;20044;-85
2023/02/14 06:19:04;;;;;;;19.20;12.00;;;;;;;;;;5075639;28;20064;-85
2023/02/14 06:21:31;;;;;;;23.15;12.35;;;;;;;;;;5044475;28;20036;-84
2023/02/14 06:23:59;;;;;;;16.33;9.93;;;;;;;;;;5077818;28;20044;-85
2023/02/14 06:26:26;;;;;;;14.90;10.73;;;;;;;;;;5050534;28;20095;-85
2023/02/14 06:28:55;;;;;;;18.08;11.07;;;;;;;;;;5066752;28;20088;-85
2023/02/14 06:31:22;;;;;;;23.90;12.40;;;;;;;;;;5050112;28;20072;-85
2023/02/14 06:33:49;;;;;;;18.33;10.90;;;;;;;;;;5049219;28;20053;-85
2023/02/14 06:36:17;;;;;;;15.63;9.00;;;;;;;;;;5066196;28;20041;-85
2023/02/14 06:38:46;;;;;;;12.82;7.90;;;;;;;;;;5048654;28;20143;-85
2023/02/14 06:41:15;;;;;;;14.07;8.43;;;;;;;;;;5048936;28;20060;-85
2023/02/14 06:43:44;;;;;;;13.98;9.75;;;;;;;;;;5066557;28;20075;-85
2023/02/14 06:46:11;;;;;;;18.17;11.38;;;;;;;;;;5048616;28;20053;-85
2023/02/14 06:48:39;;;;;;;17.27;10.63;;;;;;;;;;5048253;28;20105;-85
2023/02/14 06:51:07;;;;;;;16.20;9.60;;;;;;;;;;5048952;28;20059;-85
2023/02/14 06:53:34;;;;;;;16.38;10.18;;;;;;;;;;5066233;28;20060;-85
2023/02/14 06:56:04;;;;;;;22.30;9.23;;;;;;;;;;5048954;28;20056;-85
2023/02/14 06:58:31;;;;;;;14.57;10.13;;;;;;;;;;5066040;28;20049;-85
2023/02/14 07:00:59;;;;;;;18.65;10.10;;;;;;;;;;5066544;28;20109;-85
2023/02/14 07:03:27;;;;;;;17.17;10.48;;;;;;;;;;5048958;28;20053;-85
2023/02/14 07:05:54;;;;;;;17.77;11.38;;;;;;;;;;5048951;28;20053;-85
2023/02/14 07:08:22;;;;;;;20.85;12.70;;;;;;;;;;5049637;28;20049;-85
2023/02/14 07:10:55;;;;;;;16.67;10.88;;;;;;;;;;5066184;28;20060;-85
2023/02/14 07:13:24;;;;;;;14.93;10.20;;;;;;;;;;5049780;28;20080;-85
2023/02/14 07:15:52;;;;;;;18.35;10.27;;;;;;;;;;5049462;28;20033;-85
2023/02/14 07:18:19;;;;;;;20.95;10.90;;;;;;;;;;5048061;28;20460;-85
2023/02/14 07:20:46;;;;;;;20.33;10.57;;;;;;;;;;5049607;28;20052;-85
2023/02/14 07:23:14;;;;;;;17.45;9.88;;;;;;;;;;5048619;28;20076;-85
2023/02/14 07:25:41;;;;;;;27.50;13.68;;;;;;;;;;5048735;28;20063;-85
2023/02/14 07:28:08;;;;;;;20.65;12.15;;;;;;;;;;5065792;28;20048;-85
2023/02/14 07:30:36;;;;;;;22.08;13.25;;;;;;;;;;5048112;28;20140;-85
2023/02/14 07:33:03;;;;;;;19.83;12.25;;;;;;;;;;5048981;28;20053;-85
2023/02/14 07:35:30;;;;;;;22.38;12.38;;;;;;;;;;5048576;28;20045;-85
2023/02/14 07:37:58;;;;;;;28.85;15.35;;;;;;;;;;5048632;28;20052;-85
2023/02/14 07:40:25;;;;;;;32.45;16.20;;;;;;;;;;5048619;28;20049;-86
2023/02/14 07:42:53;;;;;;;30.45;16.38;;;;;;;;;;5048283;28;20060;-85
2023/02/14 07:45:20;;;;;;;35.03;17.55;;;;;;;;;;5061789;28;20152;-85
2023/02/14 07:47:50;;;;;;;31.23;15.20;;;;;;;;;;5042385;28;20048;-86
2023/02/14 07:50:17;;;;;;;21.77;13.35;;;;;;;;;;5047176;28;20041;-85
2023/02/14 07:52:45;;;;;;;26.15;14.88;;;;;;;;;;5069896;28;20059;-85
2023/02/14 07:55:13;;;;;;;32.67;17.92;;;;;;;;;;5053716;28;20104;-85
2023/02/14 07:57:40;;;;;;;32.30;17.98;;;;;;;;;;5052850;28;20113;-85
2023/02/14 08:00:08;;;;;;;31.85;18.10;;;;;;;;;;5051753;28;20478;-86
2023/02/14 08:02:35;;;;;;;24.05;15.07;;;;;;;;;;5052550;28;20470;-85
2023/02/14 08:05:02;;;;;;;22.55;12.82;;;;;;;;;;5069975;28;20053;-85
2023/02/14 08:07:30;;;;;;;20.52;12.82;;;;;;;;;;5069909;28;20113;-85
2023/02/14 08:09:57;;;;;;;24.08;13.75;;;;;;;;;;5070300;28;20147;-86
2023/02/14 08:17:57;;;;;;;27.60;15.30;;;;;;;;;;5060737;28;20033;-85
2023/02/14 08:20:24;;;;;;;20.75;12.48;;;;;;;;;;5037887;28;20056;-85
2023/02/14 08:22:51;;;;;;;27.70;16.02;;;;;;;;;;5031389;28;20060;-86
2023/02/14 08:25:19;;;;;;;26.38;15.05;;;;;;;;;;5048548;28;20442;-86
2023/02/14 08:27:46;;;;;;;25.08;14.57;;;;;;;;;;5031579;28;20113;-85
2023/02/14 08:30:14;;;;;;;32.75;17.55;;;;;;;;;;5031855;28;20105;-85
2023/02/14 08:32:41;;;;;;;44.88;23.15;;;;;;;;;;5031130;28;20056;-85
2023/02/14 08:35:08;;;;;;;726.53;129.82;;;;;;;;;;5031217;28;20056;-85
2023/02/14 08:37:36;;;;;;;1999.90;599.92;;;;;;;;;;5032730;28;20456;-85
2023/02/14 08:40:03;;;;;;;1999.90;434.67;;;;;;;;;;5031059;28;20045;-85
2023/02/14 08:42:30;;;;;;;1920.97;301.35;;;;;;;;;;5031878;28;20052;-85
2023/02/14 08:44:58;;;;;;;35.72;23.08;;;;;;;;;;5031751;28;20072;-85
2023/02/14 08:47:25;;;;;;;27.02;18.17;;;;;;;;;;5032051;28;20046;-85
2023/02/14 08:49:53;;;;;;;14.88;12.00;;;;;;;;;;5030868;28;20076;-84
2023/02/14 08:52:20;;;;;;;11.45;9.18;;;;;;;;;;5045450;28;20140;-84
2023/02/14 08:54:48;;;;;;;7.38;6.63;;;;;;;;;;5026787;28;20060;-84
2023/02/14 08:57:15;;;;;;;7.88;5.80;;;;;;;;;;5026937;28;20050;-84
2023/02/14 08:59:42;;;;;;;7.75;6.10;;;;;;;;;;5026646;28;20113;-84
2023/02/14 09:02:12;;;;;;;7.35;5.28;;;;;;;;;;5026948;28;20141;-84
2023/02/14 09:04:42;;;;;;;8.50;5.20;;;;;;;;;;5024373;28;20062;-84
2023/02/14 09:07:10;;;;;;;7.38;5.03;;;;;;;;;;5023821;28;20045;-84
2023/02/14 09:09:38;;;;;;;7.25;5.07;;;;;;;;;;5016575;28;20050;-84
2023/02/14 09:12:07;;;;;;;6.75;4.93;;;;;;;;;;5040702;28;20059;-84
2023/02/14 09:14:38;;;;;;;5.25;4.75;;;;;;;;;;5045647;28;20119;-84
2023/02/14 09:17:05;;;;;;;7.07;5.50;;;;;;;;;;5027893;28;20116;-85
2023/02/14 09:19:33;;;;;;;6.07;5.30;;;;;;;;;;5028054;28;20053;-84
2023/02/14 09:22:02;;;;;;;7.53;4.47;;;;;;;;;;5028074;28;20148;-85
2023/02/14 09:24:31;;;;;;;5.13;4.65;;;;;;;;;;5029401;28;20069;-84
2023/02/14 09:26:59;;;;;;;4.53;4.20;;;;;;;;;;5028543;28;20045;-82
2023/02/14 09:29:27;;;;;;;6.72;4.80;;;;;;;;;;5028886;28;20465;-82
2023/02/14 09:31:55;;;;;;;7.47;4.93;;;;;;;;;;5045945;28;20472;-82
2023/02/14 09:34:23;;;;;;;5.95;5.10;;;;;;;;;;5027537;28;20053;-82
2023/02/14 09:39:37;;;;;;;4.22;3.83;;;;;;;;;;5046132;28;20095;-81
2023/02/14 09:42:16;;;;;;;5.22;4.07;;;;;;;;;;5046025;28;20065;-82
2023/02/14 09:45:14;;;;;;;5.28;4.13;;;;;;;;;;5028684;28;20144;-81
2023/02/14 09:47:47;;;;;;;4.75;3.60;;;;;;;;;;5016642;28;20053;-81
2023/02/14 09:50:17;;;;;;;4.28;3.90;;;;;;;;;;5029623;28;20045;-81
2023/02/14 09:52:47;;;;;;;12.77;4.22;;;;;;;;;;5029065;28;20115;-81
2023/02/14 09:55:16;;;;;;;24.35;5.80;;;;;;;;;;5046229;28;20088;-81
2023/02/14 09:57:48;;;;;;;3.35;3.05;;;;;;;;;;5029121;28;20060;-81
2023/02/14 10:00:19;;;;;;;4.75;2.95;;;;;;;;;;5028730;28;20107;-82
2023/02/14 10:03:05;;;;;;;3.40;3.15;;;;;;;;;;5045891;28;20052;-82
2023/02/14 10:05:35;;;;;;;3.53;3.20;;;;;;;;;;5029377;28;20045;-81
2023/02/14 10:08:18;;;;;;;4.05;3.67;;;;;;;;;;5029748;28;20052;-81
2023/02/14 10:10:47;;;;;;;3.40;3.10;;;;;;;;;;5030088;28;20052;-82
2023/02/14 10:13:22;;;;;;;3.58;3.30;;;;;;;;;;5038952;28;20080;-81
2023/02/14 10:15:53;;;;;;;3.40;3.20;;;;;;;;;;5062690;28;20053;-81
2023/02/14 10:18:23;;;;;;;3.10;2.90;;;;;;;;;;5051615;28;20065;-82
2023/02/14 10:20:50;;;;;;;3.42;3.22;;;;;;;;;;5066916;28;20053;-82
2023/02/14 10:23:33;;;;;;;5.28;2.90;;;;;;;;;;5048635;28;20049;-82
2023/02/14 10:26:03;;;;;;;2.90;2.70;;;;;;;;;;5048625;28;20055;-83
2023/02/14 10:28:32;;;;;;;2.70;2.50;;;;;;;;;;5066727;28;20064;-83
2023/02/14 10:31:05;;;;;;;2.67;2.40;;;;;;;;;;5046081;28;20477;-82
2023/02/14 10:33:38;;;;;;;2.55;2.40;;;;;;;;;;5046335;28;20053;-82
2023/02/14 10:36:17;;;;;;;2.63;2.43;;;;;;;;;;5046254;28;20083;-81
2023/02/14 10:38:48;;;;;;;2.67;2.47;;;;;;;;;;5047278;28;20140;-82
2023/02/14 10:41:28;;;;;;;2.40;2.30;;;;;;;;;;5047800;28;20116;-82
2023/02/14 10:44:13;;;;;;;2.40;2.30;;;;;;;;;;5047281;28;20053;-82
2023/02/14 10:46:49;;;;;;;2.35;2.25;;;;;;;;;;5065787;28;20105;-82
2023/02/14 10:49:25;;;;;;;1.90;1.80;;;;;;;;;;5065480;28;20131;-82
2023/02/14 10:52:00;;;;;;;5.97;1.95;;;;;;;;;;5066030;28;20401;-82
2023/02/14 10:54:32;;;;;;;2.65;2.10;;;;;;;;;;5066062;28;20053;-82
2023/02/14 10:57:05;;;;;;;4.85;2.30;;;;;;;;;;5048093;28;20049;-82
2023/02/14 10:59:48;;;;;;;2.08;1.98;;;;;;;;;;5048930;28;20048;-82
2023/02/14 11:02:16;;;;;;;1.88;1.77;;;;;;;;;;5048005;28;20063;-82
2023/02/14 11:04:46;;;;;;;1.70;1.60;;;;;;;;;;5048441;28;20049;-82
2023/02/14 11:07:17;;;;;;;2.03;1.90;;;;;;;;;;5047820;28;20139;-82
2023/02/14 11:09:44;;;;;;;10.07;2.22;;;;;;;;;;5067327;28;20077;-82
2023/02/14 11:12:12;;;;;;;17.67;2.50;;;;;;;;;;5050415;28;20045;-82
2023/02/14 11:14:40;;;;;;;2.35;1.90;;;;;;;;;;5065928;28;20101;-82
2023/02/14 11:17:27;;;;;;;15.77;2.50;;;;;;;;;;5048255;28;20075;-82
2023/02/14 11:20:01;;;;;;;4.90;2.15;;;;;;;;;;5064770;28;20048;-83
2023/02/14 11:22:29;;;;;;;1.80;1.70;;;;;;;;;;5046981;28;20108;-82
2023/02/14 11:25:17;;;;;;;1.90;1.80;;;;;;;;;;5046511;28;20080;-82
2023/02/14 11:27:48;;;;;;;1.52;1.50;;;;;;;;;;5048295;28;20052;-82
2023/02/14 11:30:19;;;;;;;1.88;1.77;;;;;;;;;;5047439;28;20059;-82
2023/02/14 11:32:53;;;;;;;3.92;1.70;;;;;;;;;;5065595;28;20045;-82
2023/02/14 11:35:27;;;;;;;2.45;1.85;;;;;;;;;;5049162;28;20116;-83
2023/02/14 11:37:55;;;;;;;3.80;1.50;;;;;;;;;;5048437;28;20069;-82
2023/02/14 11:40:33;;;;;;;1.88;1.73;;;;;;;;;;5049713;28;20053;-82
2023/02/14 11:43:10;;;;;;;4.85;1.90;;;;;;;;;;5048894;28;20075;-82
2023/02/14 11:45:45;;;;;;;2.30;2.00;;;;;;;;;;5051040;28;20049;-82
2023/02/14 11:48:18;;;;;;;2.90;1.85;;;;;;;;;;5048872;28;20095;-82
2023/02/14 11:51:12;;;;;;;2.10;1.40;;;;;;;;;;5065590;28;20059;-82
2023/02/14 11:53:52;;;;;;;2.42;1.67;;;;;;;;;;5049360;28;20045;-82
2023/02/14 11:56:20;;;;;;;1.15;1.15;;;;;;;;;;5052160;28;20053;-82
2023/02/14 11:58:59;;;;;;;3.55;1.80;;;;;;;;;;5068559;28;20108;-82
2023/02/14 12:01:31;;;;;;;75.10;41.47;;;;;;;;;;5054223;28;20063;-82
2023/02/14 12:04:00;;;;;;;5.07;3.05;;;;;;;;;;5051610;28;20081;-82
2023/02/14 12:06:32;;;;;;;15.07;10.25;;;;;;;;;;5050655;28;20045;-81
2023/02/14 12:09:12;;;;;;;3.67;1.58;;;;;;;;;;5056159;28;20033;-81
2023/02/14 12:11:40;;;;;;;1.67;1.58;;;;;;;;;;5060860;28;20056;-81
2023/02/14 12:14:19;;;;;;;6.32;1.83;;;;;;;;;;5053980;28;20144;-82
2023/02/14 12:16:51;;;;;;;9.90;1.48;;;;;;;;;;5069017;28;20049;-81
2023/02/14 12:19:39;;;;;;;4.40;1.52;;;;;;;;;;5067993;28;20056;-82
2023/02/14 12:22:06;;;;;;;3.70;2.00;;;;;;;;;;5041099;28;20060;-82
2023/02/14 12:24:41;;;;;;;32.97;2.72;;;;;;;;;;5048591;28;20057;-82
2023/02/14 12:27:19;;;;;;;3.50;1.75;;;;;;;;;;5049640;28;20059;-82
2023/02/14 12:29:59;;;;;;;12.07;2.22;;;;;;;;;;5048659;28;20060;-82
2023/02/14 12:32:30;;;;;;;5.65;1.58;;;;;;;;;;5050082;28;20056;-82
2023/02/14 12:35:03;;;;;;;2.55;1.40;;;;;;;;;;5066962;28;20045;-82
2023/02/14 12:37:46;;;;;;;3.20;1.70;;;;;;;;;;5052891;28;20069;-82
2023/02/14 12:40:39;;;;;;;9.15;2.15;;;;;;;;;;5053015;28;20567;-82
2023/02/14 12:43:26;;;;;;;17.15;3.00;;;;;;;;;;5052028;28;20053;-83
2023/02/14 12:46:03;;;;;;;15.27;3.47;;;;;;;;;;5053553;28;20140;-84
2023/02/14 12:48:33;;;;;;;6.57;2.40;;;;;;;;;;5069332;28;20064;-83
2023/02/14 12:51:12;;;;;;;1.77;1.67;;;;;;;;;;5070210;28;20449;-84
2023/02/14 12:53:49;;;;;;;6.43;2.25;;;;;;;;;;5052736;28;20116;-83
2023/02/14 12:56:32;;;;;;;2.22;1.98;;;;;;;;;;5068973;28;20057;-83
2023/02/14 12:59:15;;;;;;;6.40;1.92;;;;;;;;;;5049317;28;20437;-83
2023/02/14 13:01:49;;;;;;;2.20;1.90;;;;;;;;;;5058606;28;20051;-84
2023/02/14 13:04:35;;;;;;;7.93;2.08;;;;;;;;;;5040337;28;20045;-84
2023/02/14 13:07:12;;;;;;;17.75;8.65;;;;;;;;;;5040355;28;20056;-83
2023/02/14 13:09:58;;;;;;;8.23;2.30;;;;;;;;;;5040333;28;20477;-83
2023/02/14 13:12:43;;;;;;;5.95;2.20;;;;;;;;;;5040564;28;20061;-83
2023/02/14 13:15:46;;;;;;;2.17;2.00;;;;;;;;;;5020887;28;20045;-83
2023/02/14 13:18:34;;;;;;;7.85;1.92;;;;;;;;;;4977175;28;20130;-83
2023/02/14 13:21:04;;;;;;;5.80;2.30;;;;;;;;;;5034911;28;20049;-83
2023/02/14 13:23:39;;;;;;;2.30;2.08;;;;;;;;;;5019693;28;20048;-84
2023/02/14 13:26:10;;;;;;;9.23;2.75;;;;;;;;;;5037462;28;20057;-83
2023/02/14 13:28:38;;;;;;;2.47;2.22;;;;;;;;;;5037984;28;20042;-83
2023/02/14 13:31:06;;;;;;;2.70;2.20;;;;;;;;;;5037552;28;20068;-83
2023/02/14 13:33:35;;;;;;;2.67;2.47;;;;;;;;;;5020163;28;20049;-83
2023/02/14 13:36:05;;;;;;;10.18;2.33;;;;;;;;;;5037480;28;20052;-83
2023/02/14 13:38:37;;;;;;;8.15;2.60;;;;;;;;;;5037485;28;20113;-84
2023/02/14 13:41:06;;;;;;;7.93;2.70;;;;;;;;;;5037256;28;20512;-83
2023/02/14 13:43:55;;;;;;;9.02;2.90;;;;;;;;;;5019571;28;20477;-84
2023/02/14 13:46:42;;;;;;;10.25;3.00;;;;;;;;;;5037659;28;20060;-84
2023/02/14 13:49:12;;;;;;;6.00;3.13;;;;;;;;;;5019111;28;20050;-84
2023/02/14 13:52:03;;;;;;;25.83;4.93;;;;;;;;;;5019943;28;20055;-83
2023/02/14 13:54:32;;;;;;;7.30;3.13;;;;;;;;;;5012028;28;20063;-84
2023/02/14 13:57:01;;;;;;;23.10;5.28;;;;;;;;;;5019796;28;20049;-84
2023/02/14 13:59:32;;;;;;;15.27;4.00;;;;;;;;;;5019293;28;20051;-84
2023/02/14 14:02:29;;;;;;;41.50;5.05;;;;;;;;;;5026079;28;20045;-84
2023/02/14 14:04:57;;;;;;;7.47;2.97;;;;;;;;;;5056516;28;20037;-84
2023/02/14 14:07:25;;;;;;;16.85;3.65;;;;;;;;;;5031993;28;20091;-84
2023/02/14 14:09:54;;;;;;;15.20;4.03;;;;;;;;;;5019782;28;20129;-84
2023/02/14 14:12:27;;;;;;;29.45;7.25;;;;;;;;;;5018497;28;20051;-84
2023/02/14 14:15:04;;;;;;;28.25;9.88;;;;;;;;;;5032313;28;20132;-84
2023/02/14 14:17:50;;;;;;;23.05;7.07;;;;;;;;;;5019286;28;20116;-84
2023/02/14 14:20:20;;;;;;;27.88;9.20;;;;;;;;;;5036403;28;20403;-84
2023/02/14 14:22:48;;;;;;;15.93;4.55;;;;;;;;;;5018892;28;20092;-84
2023/02/14 14:25:32;;;;;;;35.03;10.68;;;;;;;;;;5018613;28;20145;-84
2023/02/14 14:28:00;;;;;;;60.20;10.95;;;;;;;;;;5036468;28;20060;-84
2023/02/14 14:30:30;;;;;;;34.72;7.03;;;;;;;;;;5018758;28;20048;-84
2023/02/14 14:33:16;;;;;;;25.23;6.60;;;;;;;;;;5018472;28;20053;-84
2023/02/14 14:35:54;;;;;;;29.55;7.18;;;;;;;;;;5018497;28;20053;-84
2023/02/14 14:38:22;;;;;;;23.85;6.38;;;;;;;;;;5036026;28;20132;-84
2023/02/14 14:40:50;;;;;;;9.73;4.53;;;;;;;;;;5018834;28;20071;-84
2023/02/14 14:43:29;;;;;;;27.92;5.53;;;;;;;;;;5018284;28;20056;-84
2023/02/14 14:45:57;;;;;;;26.70;5.75;;;;;;;;;;5035793;28;20509;-84
2023/02/14 14:48:40;;;;;;;28.33;5.05;;;;;;;;;;5035980;28;20068;-84
2023/02/14 14:51:14;;;;;;;19.00;4.50;;;;;;;;;;5035673;28;20141;-84
2023/02/14 14:53:46;;;;;;;18.63;3.80;;;;;;;;;;5035356;28;20049;-84
2023/02/14 14:56:17;;;;;;;14.25;4.35;;;;;;;;;;5035145;28;20049;-84
2023/02/14 14:58:45;;;;;;;19.67;4.28;;;;;;;;;;5034976;28;20049;-84
2023/02/14 15:01:26;;;;;;;19.02;3.28;;;;;;;;;;5035246;28;20053;-84
2023/02/14 15:03:53;;;;;;;10.55;3.42;;;;;;;;;;5034835;28;20414;-84
2023/02/14 15:06:21;;;;;;;8.52;2.80;;;;;;;;;;5035151;28;20045;-84
2023/02/14 15:08:50;;;;;;;5.07;2.08;;;;;;;;;;5035209;28;20053;-84
2023/02/14 15:14:13;;;;;;;8.07;2.50;;;;;;;;;;5042659;28;20088;-83
2023/02/14 15:16:44;;;;;;;18.73;3.80;;;;;;;;;;5037474;28;20085;-84
2023/02/14 15:19:20;;;;;;;16.80;3.22;;;;;;;;;;5055046;28;20056;-84